createdAt,value
2022-12-22T00:02:45.726Z,5.80
2022-12-22T00:05:40.514Z,5.45
2022-12-22T00:08:26.611Z,5.50
2022-12-22T00:11:13.926Z,5.20
2022-12-22T00:14:02.172Z,5.05
2022-12-22T00:16:53.688Z,4.75
2022-12-22T00:19:39.987Z,5.78
2022-12-22T00:22:40.926Z,5.40
2022-12-22T00:25:31.156Z,4.72
2022-12-22T00:28:17.468Z,5.40
2022-12-22T00:31:04.128Z,4.63
2022-12-22T00:33:49.879Z,5.25
2022-12-22T00:36:36.999Z,6.15
2022-12-22T00:39:30.837Z,6.20
2022-12-22T00:42:16.856Z,5.85
2022-12-22T00:45:02.524Z,5.38
2022-12-22T00:47:50.018Z,6.05
2022-12-22T00:50:36.148Z,6.32
2022-12-22T00:53:22.928Z,6.18
2022-12-22T00:56:09.030Z,4.72
2022-12-22T00:58:55.400Z,5.88
2022-12-22T01:01:41.115Z,5.03
2022-12-22T01:04:29.962Z,5.30
2022-12-22T01:07:16.774Z,5.90
2022-12-22T01:10:08.393Z,5.43
2022-12-22T01:12:55.941Z,5.90
2022-12-22T01:15:42.369Z,5.05
2022-12-22T01:18:27.972Z,5.88
2022-12-22T01:21:14.347Z,5.35
2022-12-22T01:24:00.478Z,5.25
2022-12-22T01:26:46.661Z,5.03
2022-12-22T01:29:32.609Z,4.60
2022-12-22T01:32:19.217Z,5.57
2022-12-22T01:35:04.862Z,3.85
2022-12-22T01:37:50.732Z,5.30
2022-12-22T01:40:42.624Z,5.45
2022-12-22T01:43:45.641Z,4.60
2022-12-22T01:46:54.253Z,4.57
2022-12-22T01:49:48.697Z,4.57
2022-12-22T01:52:36.863Z,4.23
2022-12-22T01:55:28.883Z,4.78
2022-12-22T01:58:15.051Z,3.83
2022-12-22T02:01:01.879Z,4.68
2022-12-22T02:03:47.911Z,5.68
2022-12-22T02:06:46.232Z,4.13
2022-12-22T02:09:31.822Z,4.43
2022-12-22T02:12:38.193Z,4.25
2022-12-22T02:15:37.731Z,4.50
2022-12-22T02:18:35.165Z,5.15
2022-12-22T02:21:26.836Z,3.95
2022-12-22T02:24:30.449Z,4.43
2022-12-22T02:27:18.896Z,3.13
2022-12-22T02:30:11.452Z,3.47
2022-12-22T02:33:05.198Z,3.90
2022-12-22T02:36:13.766Z,4.13
2022-12-22T02:39:21.167Z,4.20
2022-12-22T02:42:34.919Z,3.63
2022-12-22T02:45:26.104Z,3.90
2022-12-22T02:48:24.058Z,3.55
2022-12-22T02:51:21.515Z,4.10
2022-12-22T02:54:09.725Z,4.22
2022-12-22T02:56:56.527Z,4.25
2022-12-22T02:59:42.160Z,4.35
2022-12-22T03:02:28.093Z,4.30
2022-12-22T03:05:14.039Z,3.58
2022-12-22T03:08:03.114Z,4.53
2022-12-22T03:10:53.523Z,4.57
2022-12-22T03:13:39.305Z,4.60
2022-12-22T03:16:24.999Z,5.32
2022-12-22T03:19:11.003Z,4.60
2022-12-22T03:21:56.673Z,4.70
2022-12-22T03:24:42.319Z,4.95
2022-12-22T03:27:09.662Z,5.30
2022-12-22T03:29:36.946Z,6.07
2022-12-22T03:32:04.387Z,5.13
2022-12-22T03:34:31.647Z,3.67
2022-12-22T03:36:58.834Z,4.50
2022-12-22T03:39:26.193Z,4.85
2022-12-22T03:42:11.678Z,5.10
2022-12-22T03:44:57.486Z,4.28
2022-12-22T03:47:24.682Z,5.25
2022-12-22T03:49:51.980Z,5.00
2022-12-22T03:52:19.258Z,4.60
2022-12-22T03:54:46.453Z,4.43
2022-12-22T03:57:13.692Z,7.47
2022-12-22T03:59:40.957Z,6.93
2022-12-22T04:02:08.414Z,5.80
2022-12-22T04:04:35.818Z,5.18
2022-12-22T04:07:03.085Z,5.10
2022-12-22T04:09:30.397Z,6.88
2022-12-22T04:12:16.234Z,5.72
2022-12-22T04:14:43.436Z,4.43
2022-12-22T04:17:10.795Z,7.38
2022-12-22T04:19:38.017Z,8.52
2022-12-22T04:22:05.356Z,6.78
2022-12-22T04:24:32.553Z,5.90
2022-12-22T04:26:59.973Z,7.93
2022-12-22T04:29:27.155Z,6.15
2022-12-22T04:31:54.436Z,7.50
2022-12-22T04:34:21.639Z,7.55
2022-12-22T04:36:48.824Z,6.05
2022-12-22T04:39:16.025Z,6.13
2022-12-22T04:41:43.249Z,5.68
2022-12-22T04:44:10.500Z,6.07
2022-12-22T04:46:37.737Z,7.85
2022-12-22T04:49:05.326Z,6.55
2022-12-22T04:51:32.565Z,5.38
2022-12-22T04:53:59.760Z,6.97
2022-12-22T04:56:26.932Z,5.68
2022-12-22T04:58:54.146Z,6.28
2022-12-22T05:01:21.554Z,6.90
2022-12-22T05:03:48.939Z,5.60
2022-12-22T05:06:16.698Z,5.75
2022-12-22T05:08:43.961Z,6.00
2022-12-22T05:11:11.608Z,8.35
2022-12-22T05:13:38.870Z,5.50
2022-12-22T05:16:08.394Z,5.43
2022-12-22T05:18:36.645Z,6.15
2022-12-22T05:21:11.007Z,4.80
2022-12-22T05:23:38.597Z,4.43
2022-12-22T05:26:06.334Z,5.28
2022-12-22T05:28:33.556Z,7.25
2022-12-22T05:31:06.177Z,4.75
2022-12-22T05:33:33.981Z,3.92
2022-12-22T05:36:01.806Z,4.40
2022-12-22T05:38:29.355Z,4.50
2022-12-22T05:41:01.721Z,4.03
2022-12-22T05:43:30.824Z,3.63
2022-12-22T05:45:58.825Z,4.18
2022-12-22T05:48:30.882Z,2.55
2022-12-22T05:51:01.210Z,2.60
2022-12-22T05:53:28.899Z,2.75
2022-12-22T05:55:56.300Z,2.58
2022-12-22T05:58:23.599Z,3.05
2022-12-22T06:00:50.951Z,2.55
2022-12-22T06:03:18.363Z,2.58
2022-12-22T06:05:45.711Z,3.33
2022-12-22T06:08:13.033Z,3.58
2022-12-22T06:10:40.288Z,3.40
2022-12-22T06:13:07.569Z,3.03
2022-12-22T06:15:34.904Z,3.95
2022-12-22T06:18:02.346Z,4.07
2022-12-22T06:20:29.620Z,3.10
2022-12-22T06:22:56.897Z,3.40
2022-12-22T06:25:24.189Z,2.58
2022-12-22T06:27:51.435Z,3.13
2022-12-22T06:30:18.778Z,3.25
2022-12-22T06:32:46.063Z,2.90
2022-12-22T06:35:13.489Z,3.20
2022-12-22T06:37:41.040Z,2.50
2022-12-22T06:40:09.301Z,3.03
2022-12-22T06:42:55.156Z,3.28
2022-12-22T06:45:22.445Z,2.30
2022-12-22T06:47:49.778Z,2.00
2022-12-22T06:50:17.232Z,1.63
2022-12-22T06:52:44.871Z,1.73
2022-12-22T06:55:12.633Z,1.80
2022-12-22T06:57:39.886Z,1.30
2022-12-22T07:00:07.859Z,1.70
2022-12-22T07:02:35.497Z,1.73
2022-12-22T07:05:03.655Z,0.82
2022-12-22T07:07:31.057Z,1.50
2022-12-22T07:09:58.313Z,1.40
2022-12-22T07:12:25.718Z,1.35
2022-12-22T07:14:53.135Z,1.10
2022-12-22T07:17:20.489Z,1.58
2022-12-22T07:19:47.714Z,1.45
2022-12-22T07:22:15.048Z,1.38
2022-12-22T07:24:42.284Z,1.30
2022-12-22T07:27:09.874Z,1.67
2022-12-22T07:29:37.215Z,2.20
2022-12-22T07:32:05.024Z,1.52
2022-12-22T07:34:32.438Z,1.40
2022-12-22T07:36:59.752Z,1.45
2022-12-22T07:39:27.091Z,2.08
2022-12-22T07:42:12.927Z,2.55
2022-12-22T07:44:40.131Z,1.30
2022-12-22T07:47:07.726Z,1.67
2022-12-22T07:49:53.478Z,1.92
2022-12-22T07:52:20.783Z,1.58
2022-12-22T07:54:48.047Z,1.20
2022-12-22T07:57:15.362Z,2.47
2022-12-22T07:59:42.564Z,1.45
2022-12-22T08:02:12.444Z,1.17
2022-12-22T08:04:39.914Z,1.30
2022-12-22T08:07:07.357Z,1.50
2022-12-22T08:09:34.626Z,2.08
2022-12-22T08:12:01.927Z,1.45
2022-12-22T08:14:29.127Z,1.42
2022-12-22T08:16:56.468Z,1.30
2022-12-22T08:19:24.576Z,1.33
2022-12-22T08:21:53.180Z,1.20
2022-12-22T08:24:21.700Z,0.98
2022-12-22T08:26:53.269Z,1.00
2022-12-22T08:29:31.537Z,1.60
2022-12-22T08:32:00.210Z,1.40
2022-12-22T08:34:27.786Z,1.23
2022-12-22T08:36:58.082Z,1.10
2022-12-22T08:39:29.136Z,1.67
2022-12-22T08:41:56.499Z,1.60
2022-12-22T08:44:26.317Z,1.63
2022-12-22T08:46:55.831Z,1.60
2022-12-22T08:49:23.376Z,1.52
2022-12-22T08:51:51.616Z,1.60
2022-12-22T08:54:19.573Z,1.95
2022-12-22T08:56:47.606Z,1.25
2022-12-22T08:59:15.508Z,1.40
2022-12-22T09:01:50.715Z,1.48
2022-12-22T09:04:20.424Z,1.52
2022-12-22T09:06:47.932Z,1.40
2022-12-22T09:09:16.680Z,1.38
2022-12-22T09:11:44.117Z,1.83
2022-12-22T09:14:12.633Z,1.70
2022-12-22T09:16:40.520Z,1.52
2022-12-22T09:19:08.648Z,1.88
2022-12-22T09:21:36.784Z,1.90
2022-12-22T09:24:07.827Z,1.58
2022-12-22T09:26:35.226Z,0.80
2022-12-22T09:29:02.469Z,0.70
2022-12-22T09:31:29.973Z,0.63
2022-12-22T09:33:58.786Z,0.65
2022-12-22T09:36:28.971Z,0.40
2022-12-22T09:38:56.237Z,0.60
2022-12-22T09:41:31.871Z,0.60
2022-12-22T09:44:05.257Z,0.70
2022-12-22T09:46:36.011Z,0.90
2022-12-22T09:49:08.426Z,0.60
2022-12-22T09:51:42.933Z,0.70
2022-12-22T09:56:38.703Z,1.23
2022-12-22T09:59:14.798Z,0.90
2022-12-22T10:02:01.520Z,0.70
2022-12-22T10:04:50.396Z,0.80
2022-12-22T10:07:29.789Z,0.70
2022-12-22T10:09:57.010Z,1.25
2022-12-22T10:12:26.089Z,1.10
2022-12-22T10:14:54.312Z,1.48
2022-12-22T10:17:32.313Z,1.25
2022-12-22T10:20:21.922Z,1.00
2022-12-22T10:22:54.657Z,0.80
2022-12-22T10:25:25.315Z,1.42
2022-12-22T10:27:55.047Z,0.90
2022-12-22T10:30:30.293Z,1.35
2022-12-22T10:33:04.788Z,1.48
2022-12-22T10:35:57.691Z,1.33
2022-12-22T10:38:34.496Z,1.15
2022-12-22T10:41:16.607Z,1.30
2022-12-22T10:44:02.311Z,1.77
2022-12-22T10:46:32.192Z,1.70
2022-12-22T10:49:13.013Z,3.30
2022-12-22T10:51:42.970Z,2.75
2022-12-22T10:54:23.456Z,2.45
2022-12-22T10:57:25.287Z,3.05
2022-12-22T10:59:58.287Z,1.88
2022-12-22T11:02:39.798Z,2.60
2022-12-22T11:05:11.853Z,3.03
2022-12-22T11:07:41.261Z,3.85
2022-12-22T11:10:22.475Z,3.20
2022-12-22T11:13:11.140Z,2.85
2022-12-22T11:15:38.338Z,2.10
2022-12-22T11:18:40.798Z,2.60
2022-12-22T11:21:49.244Z,2.08
2022-12-22T11:24:25.592Z,2.20
2022-12-22T11:27:01.793Z,1.83
2022-12-22T11:29:54.373Z,2.67
2022-12-22T11:32:24.473Z,1.70
2022-12-22T11:35:14.556Z,2.65
2022-12-22T11:38:01.452Z,1.60
2022-12-22T11:40:48.372Z,2.13
2022-12-22T11:43:18.736Z,1.95
2022-12-22T11:45:54.877Z,2.50
2022-12-22T11:48:24.900Z,1.67
2022-12-22T11:51:01.542Z,1.35
2022-12-22T11:54:08.680Z,1.90
2022-12-22T11:56:52.119Z,1.42
2022-12-22T11:59:37.913Z,2.70
2022-12-22T12:02:35.931Z,1.38
2022-12-22T12:05:34.419Z,3.83
2022-12-22T12:08:12.451Z,1.42
2022-12-22T12:10:52.099Z,1.33
2022-12-22T12:13:28.675Z,1.35
2022-12-22T12:16:20.146Z,1.40
2022-12-22T12:19:07.579Z,2.08
2022-12-22T12:21:54.676Z,1.50
2022-12-22T12:24:51.509Z,1.63
2022-12-22T12:28:03.789Z,1.40
2022-12-22T12:30:41.433Z,1.17
2022-12-22T12:33:38.925Z,1.40
2022-12-22T12:36:21.541Z,0.98
2022-12-22T12:39:21.499Z,1.55
2022-12-22T12:41:56.420Z,1.90
2022-12-22T12:44:27.797Z,1.45
2022-12-22T12:47:04.992Z,1.05
2022-12-22T12:49:35.323Z,1.70
2022-12-22T12:52:04.442Z,1.35
2022-12-22T12:54:36.675Z,1.33
2022-12-22T12:57:27.476Z,1.10
2022-12-22T12:59:57.922Z,1.65
2022-12-22T13:02:28.789Z,1.90
2022-12-22T13:05:08.172Z,2.33
2022-12-22T13:08:17.170Z,1.80
2022-12-22T13:10:49.377Z,2.05
2022-12-22T13:13:38.968Z,2.30
2022-12-22T13:16:06.193Z,1.98
2022-12-22T13:18:33.421Z,1.80
2022-12-22T13:24:23.469Z,3.38
2022-12-22T13:26:44.495Z,2.05
2022-12-22T13:29:26.962Z,1.00
2022-12-22T13:32:14.916Z,1.98
2022-12-22T13:37:46.848Z,1.95
2022-12-22T13:40:20.694Z,1.73
2022-12-22T13:42:57.507Z,2.33
2022-12-22T13:45:53.807Z,1.92
2022-12-22T13:48:31.195Z,2.80
2022-12-22T13:51:04.013Z,3.05
2022-12-22T13:56:40.010Z,2.08
2022-12-22T13:59:26.296Z,1.75
2022-12-22T14:02:00.291Z,2.13
2022-12-22T14:04:29.671Z,2.10
2022-12-22T14:06:57.060Z,1.73
2022-12-22T14:09:28.169Z,1.45
2022-12-22T14:11:57.163Z,1.50
2022-12-22T14:14:26.233Z,1.67
2022-12-22T14:16:57.188Z,1.55
2022-12-22T14:19:25.731Z,2.42
2022-12-22T14:22:04.537Z,1.77
2022-12-22T14:24:38.726Z,2.08
2022-12-22T14:27:12.533Z,2.08
2022-12-22T14:29:39.903Z,1.77
2022-12-22T14:32:08.987Z,2.97
2022-12-22T14:34:36.266Z,4.85
2022-12-22T14:37:03.511Z,4.97
2022-12-22T14:39:34.799Z,7.40
2022-12-22T14:42:04.332Z,3.63
2022-12-22T14:44:37.800Z,4.80
2022-12-22T14:47:20.487Z,3.33
2022-12-22T14:50:14.130Z,3.58
2022-12-22T14:52:51.216Z,3.08
2022-12-22T14:55:40.850Z,1.80
2022-12-22T14:58:13.692Z,2.50
2022-12-22T15:00:43.659Z,2.13
2022-12-22T15:03:29.538Z,1.27
2022-12-22T15:05:56.955Z,2.33
2022-12-22T15:08:41.201Z,2.45
2022-12-22T15:11:20.129Z,2.35
2022-12-22T15:13:49.246Z,2.38
2022-12-22T15:16:20.079Z,2.05
2022-12-22T15:18:48.504Z,2.90
2022-12-22T15:21:17.629Z,1.55
2022-12-22T15:23:45.103Z,1.50
2022-12-22T15:26:12.462Z,1.40
2022-12-22T15:28:39.720Z,1.42
2022-12-22T15:31:17.363Z,0.90
2022-12-22T15:33:45.612Z,1.10
2022-12-22T15:36:14.154Z,1.23
2022-12-22T15:38:41.820Z,1.45
2022-12-22T15:41:09.001Z,1.02
2022-12-22T15:46:24.829Z,2.92
2022-12-22T15:48:52.610Z,2.15
2022-12-22T15:51:29.657Z,2.78
2022-12-22T15:53:58.641Z,1.95
2022-12-22T15:56:30.282Z,1.98
2022-12-22T15:58:57.836Z,1.80
2022-12-22T16:01:25.145Z,2.00
2022-12-22T16:03:52.622Z,1.63
2022-12-22T16:06:20.197Z,1.27
2022-12-22T16:08:53.208Z,1.55
2022-12-22T16:11:20.772Z,2.10
2022-12-22T16:13:50.284Z,2.72
2022-12-22T16:16:17.889Z,2.85
2022-12-22T16:18:45.089Z,2.08
2022-12-22T16:21:17.096Z,2.55
2022-12-22T16:23:47.755Z,2.45
2022-12-22T16:26:18.561Z,2.92
2022-12-22T16:28:45.923Z,1.95
2022-12-22T16:31:18.998Z,3.58
2022-12-22T16:33:46.368Z,2.95
2022-12-22T16:36:14.363Z,2.30
2022-12-22T16:38:41.617Z,2.85
2022-12-22T16:41:20.448Z,4.57
2022-12-22T16:43:49.577Z,3.50
2022-12-22T16:46:19.953Z,2.90
2022-12-22T16:48:51.512Z,6.43
2022-12-22T16:51:23.947Z,3.58
2022-12-22T16:53:51.553Z,4.38
2022-12-22T16:56:26.830Z,3.78
2022-12-22T16:58:54.100Z,3.30
2022-12-22T17:01:41.760Z,3.50
2022-12-22T17:04:31.938Z,3.25
2022-12-22T17:07:01.019Z,4.97
2022-12-22T17:09:41.244Z,3.80
2022-12-22T17:12:15.469Z,5.78
2022-12-22T17:14:42.771Z,3.78
2022-12-22T17:17:18.945Z,4.03
2022-12-22T17:19:46.162Z,3.72
2022-12-22T17:22:24.932Z,4.10
2022-12-22T17:24:54.306Z,5.53
2022-12-22T17:27:28.950Z,4.85
2022-12-22T17:32:23.903Z,3.88
2022-12-22T17:34:51.185Z,3.72
2022-12-22T17:37:22.124Z,4.05
2022-12-22T17:39:57.497Z,3.83
2022-12-22T17:42:24.987Z,4.50
2022-12-22T17:44:52.750Z,5.30
2022-12-22T17:47:29.085Z,3.90
2022-12-22T17:49:58.746Z,4.43
2022-12-22T17:52:28.169Z,5.40
2022-12-22T17:54:55.915Z,6.20
2022-12-22T17:57:29.927Z,5.53
2022-12-22T17:59:57.216Z,4.80
2022-12-22T18:02:25.966Z,4.45
2022-12-22T18:04:53.498Z,4.45
2022-12-22T18:07:23.258Z,4.05
2022-12-22T18:09:53.768Z,5.85
2022-12-22T18:12:23.246Z,4.95
2022-12-22T18:14:51.321Z,5.85
2022-12-22T18:17:28.610Z,3.60
2022-12-22T18:20:00.486Z,4.00
2022-12-22T18:22:30.011Z,6.53
2022-12-22T18:24:57.897Z,7.18
2022-12-22T18:27:25.415Z,5.55
2022-12-22T18:29:52.754Z,4.35
2022-12-22T18:32:27.130Z,5.57
2022-12-22T18:34:54.939Z,4.82
2022-12-22T18:37:22.217Z,6.38
2022-12-22T18:39:50.672Z,5.70
2022-12-22T18:42:21.477Z,5.00
2022-12-22T18:44:49.746Z,6.15
2022-12-22T18:47:17.696Z,6.57
2022-12-22T18:49:45.462Z,5.75
2022-12-22T18:52:18.652Z,5.18
2022-12-22T18:54:46.573Z,4.57
2022-12-22T18:57:17.391Z,5.15
2022-12-22T18:59:46.196Z,3.70
2022-12-22T19:02:22.996Z,4.07
2022-12-22T19:04:51.062Z,2.90
2022-12-22T19:07:21.584Z,3.63
2022-12-22T19:09:49.364Z,4.35
2022-12-22T19:12:19.587Z,3.78
2022-12-22T19:15:02.920Z,3.97
2022-12-22T19:17:30.418Z,4.43
2022-12-22T19:19:58.117Z,4.32
2022-12-22T19:22:25.657Z,3.50
2022-12-22T19:24:57.498Z,4.32
2022-12-22T19:27:27.220Z,3.85
2022-12-22T19:30:03.531Z,4.43
2022-12-22T19:32:39.376Z,3.60
2022-12-22T19:35:18.364Z,5.13
2022-12-22T19:37:50.574Z,5.13
2022-12-22T19:40:20.070Z,4.43
2022-12-22T19:42:53.746Z,3.10
2022-12-22T19:45:27.438Z,4.70
2022-12-22T19:47:56.875Z,2.93
2022-12-22T19:50:27.977Z,4.20
2022-12-22T19:52:56.271Z,3.78
2022-12-22T19:55:25.012Z,3.78
2022-12-22T19:57:52.563Z,4.95
2022-12-22T20:00:25.706Z,3.33
2022-12-22T20:02:55.945Z,3.60
2022-12-22T20:05:23.277Z,3.35
2022-12-22T20:07:51.922Z,3.30
2022-12-22T20:10:20.690Z,3.85
2022-12-22T20:12:51.202Z,3.60
2022-12-22T20:15:43.396Z,3.45
2022-12-22T20:18:23.003Z,2.10
2022-12-22T20:21:12.786Z,3.63
2022-12-22T20:23:41.000Z,3.03
2022-12-22T20:26:15.043Z,2.22
2022-12-22T20:28:42.338Z,2.65
2022-12-22T20:31:12.824Z,2.40
2022-12-22T20:33:40.208Z,2.95
2022-12-22T20:36:21.708Z,1.58
2022-12-22T20:38:52.340Z,3.33
2022-12-22T20:41:20.641Z,3.30
2022-12-22T20:43:48.859Z,2.60
2022-12-22T20:46:17.995Z,2.30
2022-12-22T20:48:49.328Z,2.08
2022-12-22T20:51:19.902Z,1.25
2022-12-22T20:53:48.280Z,1.95
2022-12-22T20:56:31.397Z,1.30
2022-12-22T20:59:00.979Z,0.95
2022-12-22T21:01:28.778Z,0.95
2022-12-22T21:03:56.083Z,1.70
2022-12-22T21:06:30.120Z,0.95
2022-12-22T21:08:59.437Z,1.48
2022-12-22T21:11:28.337Z,1.75
2022-12-22T21:13:57.650Z,1.50
2022-12-22T21:16:27.726Z,1.25
2022-12-22T21:18:55.490Z,1.10
2022-12-22T21:21:22.949Z,1.13
2022-12-22T21:23:50.207Z,0.75
2022-12-22T21:26:31.690Z,1.00
2022-12-22T21:29:04.857Z,0.80
2022-12-22T21:31:32.272Z,0.90
2022-12-22T21:33:59.625Z,0.50
2022-12-22T21:36:34.073Z,0.60
2022-12-22T21:39:05.750Z,0.70
2022-12-22T21:41:51.337Z,0.70
2022-12-22T21:44:18.697Z,0.70
2022-12-22T21:46:46.956Z,0.65
2022-12-22T21:49:25.966Z,0.50
2022-12-22T21:51:53.939Z,0.50
2022-12-22T21:54:23.047Z,0.93
2022-12-22T21:56:51.934Z,1.00
2022-12-22T21:59:19.218Z,0.60
2022-12-22T22:01:46.795Z,0.60
2022-12-22T22:04:14.329Z,0.68
2022-12-22T22:06:41.648Z,0.40
2022-12-22T22:09:09.103Z,1.13
2022-12-22T22:11:58.997Z,0.50
2022-12-22T22:14:27.054Z,0.40
2022-12-22T22:16:54.648Z,0.40
2022-12-22T22:19:21.885Z,0.45
2022-12-22T22:21:49.220Z,0.35
2022-12-22T22:24:16.571Z,0.52
2022-12-22T22:26:49.299Z,0.40
2022-12-22T22:29:16.584Z,0.50
2022-12-22T22:31:44.048Z,0.52
2022-12-22T22:34:11.379Z,0.30
2022-12-22T22:36:38.811Z,0.30
2022-12-22T22:39:06.047Z,0.30
2022-12-22T22:41:39.274Z,0.50
2022-12-22T22:44:10.085Z,0.40
2022-12-22T22:46:37.442Z,0.30
2022-12-22T22:49:04.750Z,0.40
2022-12-22T22:51:32.114Z,0.30
2022-12-22T22:53:59.385Z,0.30
2022-12-22T22:56:26.616Z,0.40
2022-12-22T22:58:53.806Z,0.40
2022-12-22T23:01:21.132Z,0.30
2022-12-22T23:03:48.396Z,0.40
2022-12-22T23:06:15.842Z,0.50
2022-12-22T23:08:43.021Z,0.20
2022-12-22T23:11:15.009Z,0.50
2022-12-22T23:13:43.039Z,0.30
2022-12-22T23:16:10.508Z,0.30
2022-12-22T23:18:38.140Z,0.32
2022-12-22T23:21:07.441Z,0.50
2022-12-22T23:23:35.770Z,0.25
2022-12-22T23:26:03.237Z,0.40
2022-12-22T23:28:30.635Z,0.40
2022-12-22T23:30:57.995Z,0.40
2022-12-22T23:33:25.648Z,0.43
2022-12-22T23:35:53.578Z,0.30
2022-12-22T23:38:21.496Z,0.30
2022-12-22T23:40:54.183Z,0.20
2022-12-22T23:43:22.623Z,0.47
2022-12-22T23:45:49.912Z,0.30
2022-12-22T23:48:17.151Z,0.43
2022-12-22T23:50:48.099Z,0.35
2022-12-22T23:53:16.265Z,0.40
2022-12-22T23:55:50.150Z,0.40
2022-12-22T23:58:17.658Z,0.30
